Time;durP1;ratioP1;P1;durP2;ratioP2;P2;SDS_P1;SDS_P2;PMS_P1;PMS_P2;Temp;Humidity;BMP_temperature;BMP_pressure;BME280_temperature;BME280_humidity;BME280_pressure;Samples;Min_cycle;Max_cycle;Signal;HPM_P1;HPM_P2
2023/12/26 00:00:36;;;;;;;5.50;4.60;;;;;;;;;;5074912;28;20226;-56
2023/12/26 00:03:06;;;;;;;6.97;4.60;;;;;;;;;;5073276;28;20546;-54
2023/12/26 00:05:33;;;;;;;6.30;3.43;;;;;;;;;;5073412;28;20231;-56
2023/12/26 00:08:03;;;;;;;5.13;3.07;;;;;;;;;;5058255;28;20612;-56
2023/12/26 00:10:30;;;;;;;6.57;4.17;;;;;;;;;;5074679;28;20238;-58
2023/12/26 00:12:56;;;;;;;5.77;3.23;;;;;;;;;;5074284;28;20169;-57
2023/12/26 00:15:25;;;;;;;10.00;4.00;;;;;;;;;;5074686;28;20560;-60
2023/12/26 00:17:52;;;;;;;7.87;3.77;;;;;;;;;;5076034;28;20180;-57
2023/12/26 00:20:18;;;;;;;5.83;3.67;;;;;;;;;;5074162;28;20206;-55
2023/12/26 00:22:44;;;;;;;4.77;3.30;;;;;;;;;;5075014;28;20208;-57
2023/12/26 00:25:11;;;;;;;6.33;3.07;;;;;;;;;;5074683;28;20176;-58
2023/12/26 00:27:39;;;;;;;4.33;2.80;;;;;;;;;;5074566;28;20603;-58
2023/12/26 00:30:12;;;;;;;7.43;2.93;;;;;;;;;;5073756;28;20179;-55
2023/12/26 00:32:38;;;;;;;5.10;2.80;;;;;;;;;;5072328;28;20222;-57
2023/12/26 00:35:04;;;;;;;8.27;2.67;;;;;;;;;;5068356;28;20215;-58
2023/12/26 00:37:32;;;;;;;4.40;2.17;;;;;;;;;;5069245;28;20631;-54
2023/12/26 00:40:00;;;;;;;5.53;1.80;;;;;;;;;;5074099;28;20212;-55
2023/12/26 00:42:26;;;;;;;3.43;1.30;;;;;;;;;;5073835;28;20226;-56
2023/12/26 00:44:53;;;;;;;5.17;1.80;;;;;;;;;;5075385;28;20239;-58
2023/12/26 00:47:20;;;;;;;2.03;1.13;;;;;;;;;;5074154;28;20165;-57
2023/12/26 00:49:47;;;;;;;3.50;1.30;;;;;;;;;;5075053;28;20160;-57
2023/12/26 00:52:13;;;;;;;3.10;1.10;;;;;;;;;;5074351;28;20179;-58
2023/12/26 00:54:40;;;;;;;5.07;1.20;;;;;;;;;;5075172;28;20516;-57
2023/12/26 00:57:07;;;;;;;1.53;0.90;;;;;;;;;;5074761;28;20427;-57
2023/12/26 00:59:34;;;;;;;2.13;1.00;;;;;;;;;;5075788;28;20169;-57
2023/12/26 01:02:01;;;;;;;1.97;1.00;;;;;;;;;;5074901;28;20183;-56
2023/12/26 01:04:30;;;;;;;1.87;0.83;;;;;;;;;;5075271;28;20559;-57
2023/12/26 01:06:56;;;;;;;4.53;1.30;;;;;;;;;;5075190;28;20229;-56
2023/12/26 01:09:23;;;;;;;2.57;1.00;;;;;;;;;;5075876;28;20173;-58
2023/12/26 01:11:48;;;;;;;2.73;1.30;;;;;;;;;;5075398;28;20186;-55
2023/12/26 01:14:14;;;;;;;3.87;1.10;;;;;;;;;;5074178;28;20180;-57
2023/12/26 01:16:50;;;;;;;3.07;1.10;;;;;;;;;;5074926;28;20177;-56
2023/12/26 01:19:16;;;;;;;1.90;1.07;;;;;;;;;;5074905;28;20173;-57
2023/12/26 01:21:42;;;;;;;4.53;1.13;;;;;;;;;;5075501;28;20179;-55
2023/12/26 01:24:08;;;;;;;2.80;1.30;;;;;;;;;;5074192;28;20200;-56
2023/12/26 01:26:34;;;;;;;1.90;1.37;;;;;;;;;;5074288;28;20175;-58
2023/12/26 01:29:01;;;;;;;2.53;1.23;;;;;;;;;;5075515;28;20193;-58
2023/12/26 01:31:27;;;;;;;4.00;1.47;;;;;;;;;;5075036;28;20204;-58
2023/12/26 01:33:53;;;;;;;3.07;1.07;;;;;;;;;;5074170;28;20583;-58
2023/12/26 01:36:19;;;;;;;2.67;1.37;;;;;;;;;;5074652;28;20318;-56
2023/12/26 01:38:45;;;;;;;3.27;1.30;;;;;;;;;;5075886;28;20285;-58
2023/12/26 01:41:11;;;;;;;1.50;1.20;;;;;;;;;;5075565;28;20165;-57
2023/12/26 01:43:39;;;;;;;2.87;1.40;;;;;;;;;;5074402;28;20218;-54
2023/12/26 01:46:05;;;;;;;2.43;1.00;;;;;;;;;;5073810;28;20188;-58
2023/12/26 01:48:31;;;;;;;1.60;1.10;;;;;;;;;;5075214;28;20172;-57
2023/12/26 01:50:57;;;;;;;1.97;1.40;;;;;;;;;;5075294;28;20164;-56
2023/12/26 01:53:25;;;;;;;2.30;1.33;;;;;;;;;;5074157;28;20180;-58
2023/12/26 01:55:51;;;;;;;2.60;1.50;;;;;;;;;;5074751;28;20173;-58
2023/12/26 01:58:17;;;;;;;4.97;1.63;;;;;;;;;;5075415;28;20191;-56
2023/12/26 02:00:43;;;;;;;1.57;1.40;;;;;;;;;;5074801;28;20192;-52
2023/12/26 02:03:09;;;;;;;3.53;2.53;;;;;;;;;;5075018;28;20461;-55
2023/12/26 02:05:35;;;;;;;3.30;2.47;;;;;;;;;;5073858;28;20228;-55
2023/12/26 02:08:02;;;;;;;2.37;2.17;;;;;;;;;;5073391;28;20181;-57
2023/12/26 02:10:28;;;;;;;4.50;2.67;;;;;;;;;;5075645;28;20161;-55
2023/12/26 02:12:54;;;;;;;3.47;2.83;;;;;;;;;;5075839;28;20203;-54
2023/12/26 02:15:20;;;;;;;3.00;2.70;;;;;;;;;;5078231;28;20246;-56
2023/12/26 02:17:46;;;;;;;3.57;2.70;;;;;;;;;;5078820;28;20180;-58
2023/12/26 02:20:13;;;;;;;3.67;2.53;;;;;;;;;;5077921;28;20169;-59
2023/12/26 02:22:39;;;;;;;2.57;2.37;;;;;;;;;;5077758;28;20242;-57
2023/12/26 02:25:07;;;;;;;3.93;2.23;;;;;;;;;;5077638;28;20200;-55
2023/12/26 02:27:36;;;;;;;4.03;2.23;;;;;;;;;;5078909;28;20250;-57
2023/12/26 02:30:04;;;;;;;4.67;1.73;;;;;;;;;;5077900;28;20180;-58
2023/12/26 02:32:31;;;;;;;1.70;1.60;;;;;;;;;;5077339;28;20195;-59
2023/12/26 02:35:00;;;;;;;3.10;1.63;;;;;;;;;;5077877;28;20172;-58
2023/12/26 02:37:26;;;;;;;1.53;1.03;;;;;;;;;;5078438;28;20420;-58
2023/12/26 02:39:52;;;;;;;2.40;1.30;;;;;;;;;;5078664;28;20172;-56
2023/12/26 02:42:19;;;;;;;1.57;1.10;;;;;;;;;;5078778;28;20183;-57
2023/12/26 02:44:45;;;;;;;2.00;0.90;;;;;;;;;;5077570;28;20712;-56
2023/12/26 02:47:11;;;;;;;1.80;1.10;;;;;;;;;;5078151;28;20176;-55
2023/12/26 02:49:37;;;;;;;2.63;1.23;;;;;;;;;;5077980;28;20241;-58
2023/12/26 02:52:03;;;;;;;2.63;0.90;;;;;;;;;;5077744;28;20354;-55
2023/12/26 02:54:29;;;;;;;1.73;0.97;;;;;;;;;;5078382;28;20172;-56
2023/12/26 02:56:55;;;;;;;1.20;0.87;;;;;;;;;;5077541;28;20173;-58
2023/12/26 02:59:21;;;;;;;4.10;1.20;;;;;;;;;;5077239;28;20176;-56
2023/12/26 03:01:50;;;;;;;1.63;0.60;;;;;;;;;;5076282;28;20177;-56
2023/12/26 03:04:16;;;;;;;1.23;0.87;;;;;;;;;;5077107;28;20299;-56
2023/12/26 03:06:42;;;;;;;4.63;1.00;;;;;;;;;;5077661;28;20183;-56
2023/12/26 03:09:09;;;;;;;1.83;1.03;;;;;;;;;;5077877;28;20467;-58
2023/12/26 03:11:35;;;;;;;1.43;0.90;;;;;;;;;;5077788;28;20456;-58
2023/12/26 03:14:01;;;;;;;1.73;0.90;;;;;;;;;;5077406;28;20176;-55
2023/12/26 03:16:27;;;;;;;4.03;0.60;;;;;;;;;;5078247;28;20173;-58
2023/12/26 03:18:54;;;;;;;1.13;0.87;;;;;;;;;;5077882;28;20177;-55
2023/12/26 03:21:29;;;;;;;2.10;1.00;;;;;;;;;;5077422;28;20186;-57
2023/12/26 03:23:55;;;;;;;2.07;0.87;;;;;;;;;;5076644;28;20207;-53
2023/12/26 03:26:22;;;;;;;1.47;0.90;;;;;;;;;;5077366;28;20184;-55
2023/12/26 03:28:48;;;;;;;1.33;0.50;;;;;;;;;;5078072;28;20173;-58
2023/12/26 03:31:13;;;;;;;2.07;0.83;;;;;;;;;;5077317;28;20176;-56
2023/12/26 03:33:39;;;;;;;1.73;0.73;;;;;;;;;;5076919;28;20177;-58
2023/12/26 03:36:06;;;;;;;1.70;0.70;;;;;;;;;;5076661;28;20219;-54
2023/12/26 03:38:32;;;;;;;0.70;0.70;;;;;;;;;;5076766;28;20183;-56
2023/12/26 03:40:58;;;;;;;0.90;0.60;;;;;;;;;;5077374;28;20185;-55
2023/12/26 03:43:24;;;;;;;2.37;0.80;;;;;;;;;;5076987;28;20200;-55
2023/12/26 03:45:50;;;;;;;1.33;0.70;;;;;;;;;;5076978;28;20186;-58
2023/12/26 03:48:16;;;;;;;2.60;1.17;;;;;;;;;;5077318;28;20168;-57
2023/12/26 03:50:42;;;;;;;2.90;0.70;;;;;;;;;;5076697;28;20238;-54
2023/12/26 03:53:08;;;;;;;1.93;0.70;;;;;;;;;;5076489;28;20179;-57
2023/12/26 03:55:35;;;;;;;1.23;0.50;;;;;;;;;;5077298;28;20179;-58
2023/12/26 03:58:01;;;;;;;1.30;0.50;;;;;;;;;;5076917;28;20173;-56
2023/12/26 04:00:30;;;;;;;1.43;0.53;;;;;;;;;;5075852;28;20173;-56
2023/12/26 04:02:56;;;;;;;2.33;0.93;;;;;;;;;;5075528;28;20215;-56
2023/12/26 04:05:23;;;;;;;3.20;0.97;;;;;;;;;;5075348;28;20271;-54
2023/12/26 04:07:49;;;;;;;3.10;0.70;;;;;;;;;;5075580;28;20256;-56
2023/12/26 04:10:15;;;;;;;1.80;0.67;;;;;;;;;;5075591;28;20271;-57
2023/12/26 04:12:56;;;;;;;1.80;0.70;;;;;;;;;;5076955;28;20284;-57
2023/12/26 04:15:22;;;;;;;1.47;0.77;;;;;;;;;;5073520;28;20253;-56
2023/12/26 04:17:48;;;;;;;2.33;0.50;;;;;;;;;;5073712;28;20488;-56
2023/12/26 04:20:14;;;;;;;1.33;0.90;;;;;;;;;;5072963;28;20176;-53
2023/12/26 04:22:40;;;;;;;2.00;0.70;;;;;;;;;;5072627;28;20226;-56
2023/12/26 04:25:07;;;;;;;1.20;0.60;;;;;;;;;;5072300;28;20175;-55
2023/12/26 04:27:33;;;;;;;2.40;1.17;;;;;;;;;;5071834;28;20267;-53
2023/12/26 04:29:59;;;;;;;0.87;0.67;;;;;;;;;;5071848;28;20325;-57
2023/12/26 04:32:26;;;;;;;2.03;0.70;;;;;;;;;;5072653;28;20315;-58
2023/12/26 04:34:52;;;;;;;0.93;0.70;;;;;;;;;;5073791;28;20180;-56
2023/12/26 04:37:18;;;;;;;5.57;1.10;;;;;;;;;;5073918;28;20179;-56
2023/12/26 04:39:44;;;;;;;2.57;0.90;;;;;;;;;;5073443;28;20454;-56
2023/12/26 04:42:10;;;;;;;3.67;0.83;;;;;;;;;;5073680;28;20172;-56
2023/12/26 04:44:36;;;;;;;1.67;0.80;;;;;;;;;;5072673;28;20522;-57
2023/12/26 04:47:02;;;;;;;12.73;1.63;;;;;;;;;;5074678;28;20463;-57
2023/12/26 04:49:28;;;;;;;3.97;1.77;;;;;;;;;;5073069;28;20169;-56
2023/12/26 04:51:54;;;;;;;4.47;1.23;;;;;;;;;;5073448;28;20168;-55
2023/12/26 04:54:20;;;;;;;4.10;1.17;;;;;;;;;;5073972;28;20239;-56
2023/12/26 04:56:46;;;;;;;6.90;1.30;;;;;;;;;;5074096;28;20234;-56
2023/12/26 04:59:12;;;;;;;3.47;1.33;;;;;;;;;;5073351;28;20189;-53
2023/12/26 05:01:42;;;;;;;8.07;1.67;;;;;;;;;;5072952;28;20291;-58
2023/12/26 05:04:11;;;;;;;15.77;2.27;;;;;;;;;;5072904;28;20211;-57
2023/12/26 05:06:38;;;;;;;8.50;3.03;;;;;;;;;;5070476;28;20186;-55
2023/12/26 05:09:04;;;;;;;4.53;1.70;;;;;;;;;;5072375;28;20204;-55
2023/12/26 05:11:30;;;;;;;7.83;2.47;;;;;;;;;;5071466;28;20218;-56
2023/12/26 05:13:55;;;;;;;11.03;2.87;;;;;;;;;;5071624;28;20188;-56
2023/12/26 05:16:22;;;;;;;10.57;2.07;;;;;;;;;;5074715;28;20196;-55
2023/12/26 05:18:48;;;;;;;6.97;1.87;;;;;;;;;;5075406;28;20176;-56
2023/12/26 05:21:22;;;;;;;9.73;2.53;;;;;;;;;;5075453;28;20287;-57
2023/12/26 05:23:48;;;;;;;11.03;2.37;;;;;;;;;;5075463;28;20243;-58
2023/12/26 05:26:14;;;;;;;13.20;2.57;;;;;;;;;;5075439;28;20169;-55
2023/12/26 05:28:41;;;;;;;9.37;2.00;;;;;;;;;;5074870;28;20169;-54
2023/12/26 05:31:07;;;;;;;8.83;2.17;;;;;;;;;;5074536;28;20546;-56
2023/12/26 05:33:33;;;;;;;13.00;2.73;;;;;;;;;;5075288;28;20183;-56
2023/12/26 05:36:02;;;;;;;11.90;2.90;;;;;;;;;;5075718;28;20172;-55
2023/12/26 05:38:28;;;;;;;9.33;3.03;;;;;;;;;;5075792;28;20238;-55
2023/12/26 05:40:54;;;;;;;16.33;2.50;;;;;;;;;;5076040;28;20286;-55
2023/12/26 05:43:20;;;;;;;10.33;2.00;;;;;;;;;;5076924;28;20205;-53
2023/12/26 05:45:46;;;;;;;8.43;2.40;;;;;;;;;;5079155;28;20250;-57
2023/12/26 05:48:12;;;;;;;10.90;1.80;;;;;;;;;;5079612;28;20199;-57
2023/12/26 05:50:38;;;;;;;9.77;2.03;;;;;;;;;;5078848;28;20474;-56
2023/12/26 05:53:05;;;;;;;10.27;1.93;;;;;;;;;;5078908;28;20168;-56
2023/12/26 05:55:31;;;;;;;8.67;2.00;;;;;;;;;;5078984;28;20275;-55
2023/12/26 05:57:57;;;;;;;8.20;2.43;;;;;;;;;;5078847;28;20201;-57
2023/12/26 06:00:23;;;;;;;11.37;2.73;;;;;;;;;;5078201;28;20215;-55
2023/12/26 06:02:49;;;;;;;10.97;2.53;;;;;;;;;;5078292;28;20216;-56
2023/12/26 06:05:15;;;;;;;11.33;1.83;;;;;;;;;;5078796;28;20243;-58
2023/12/26 06:07:41;;;;;;;8.60;2.00;;;;;;;;;;5078938;28;20169;-58
2023/12/26 06:10:07;;;;;;;7.37;2.47;;;;;;;;;;5078436;28;20165;-56
2023/12/26 06:12:33;;;;;;;9.53;2.60;;;;;;;;;;5079313;28;20229;-59
2023/12/26 06:14:59;;;;;;;15.37;2.57;;;;;;;;;;5078583;28;20176;-57
2023/12/26 06:17:26;;;;;;;13.00;2.53;;;;;;;;;;5078989;28;20540;-56
2023/12/26 06:19:52;;;;;;;7.70;2.10;;;;;;;;;;5077877;28;20176;-56
2023/12/26 06:22:18;;;;;;;10.90;2.63;;;;;;;;;;5078218;28;20173;-56
2023/12/26 06:24:44;;;;;;;12.00;2.50;;;;;;;;;;5077779;28;20548;-58
2023/12/26 06:27:10;;;;;;;13.37;2.33;;;;;;;;;;5078239;28;20206;-56
2023/12/26 06:29:36;;;;;;;7.03;1.80;;;;;;;;;;5078485;28;20189;-57
2023/12/26 06:32:02;;;;;;;6.97;3.37;;;;;;;;;;5077783;28;20183;-57
2023/12/26 06:34:28;;;;;;;18.37;3.30;;;;;;;;;;5078535;28;20204;-54
2023/12/26 06:36:54;;;;;;;12.57;3.13;;;;;;;;;;5075366;28;20576;-58
2023/12/26 06:39:20;;;;;;;10.47;3.03;;;;;;;;;;5077244;28;20781;-57
2023/12/26 06:41:59;;;;;;;12.20;3.03;;;;;;;;;;5078143;28;20657;-55
2023/12/26 06:44:25;;;;;;;10.17;2.70;;;;;;;;;;5078018;28;20220;-57
2023/12/26 06:46:51;;;;;;;9.30;1.60;;;;;;;;;;5077974;28;20227;-54
2023/12/26 06:49:18;;;;;;;5.43;1.73;;;;;;;;;;5079018;28;20171;-57
2023/12/26 06:51:44;;;;;;;11.80;2.73;;;;;;;;;;5078564;28;20268;-55
2023/12/26 06:54:11;;;;;;;8.43;2.43;;;;;;;;;;5077577;28;20501;-55
2023/12/26 06:56:37;;;;;;;14.33;3.17;;;;;;;;;;5078660;28;20589;-54
2023/12/26 06:59:03;;;;;;;12.53;2.30;;;;;;;;;;5078658;28;20595;-55
2023/12/26 07:01:29;;;;;;;12.70;3.10;;;;;;;;;;5079325;28;20330;-55
2023/12/26 07:03:55;;;;;;;11.70;2.80;;;;;;;;;;5079121;28;20731;-57
2023/12/26 07:06:21;;;;;;;12.20;3.60;;;;;;;;;;5078244;28;20319;-57
2023/12/26 07:08:47;;;;;;;10.90;2.17;;;;;;;;;;5078499;28;20219;-53
2023/12/26 07:11:13;;;;;;;12.90;3.27;;;;;;;;;;5078429;28;20654;-54
2023/12/26 07:13:39;;;;;;;17.83;3.17;;;;;;;;;;5078063;28;20569;-54
2023/12/26 07:16:05;;;;;;;9.73;2.37;;;;;;;;;;5077201;28;20648;-57
2023/12/26 07:18:31;;;;;;;11.73;2.70;;;;;;;;;;5077903;28;20611;-55
2023/12/26 07:20:57;;;;;;;16.80;2.67;;;;;;;;;;5078081;28;20763;-58
2023/12/26 07:23:22;;;;;;;12.10;3.03;;;;;;;;;;5077532;28;20198;-58
2023/12/26 07:25:49;;;;;;;14.00;2.80;;;;;;;;;;5077577;28;20275;-57
2023/12/26 07:28:17;;;;;;;13.10;2.73;;;;;;;;;;5077188;28;20184;-57
2023/12/26 07:30:43;;;;;;;12.20;3.07;;;;;;;;;;5077620;28;20181;-55
2023/12/26 07:33:09;;;;;;;12.53;3.10;;;;;;;;;;5078127;28;20200;-57
2023/12/26 07:35:36;;;;;;;11.90;2.57;;;;;;;;;;5076343;28;20266;-57
2023/12/26 07:38:02;;;;;;;7.60;1.93;;;;;;;;;;5075986;28;20272;-57
2023/12/26 07:40:28;;;;;;;18.23;2.83;;;;;;;;;;5076893;28;20259;-57
2023/12/26 07:42:54;;;;;;;16.97;1.93;;;;;;;;;;5075503;28;20251;-55
2023/12/26 07:45:23;;;;;;;10.53;2.73;;;;;;;;;;5076711;28;20208;-54
2023/12/26 07:47:49;;;;;;;9.63;2.27;;;;;;;;;;5077257;28;20176;-57
2023/12/26 07:50:15;;;;;;;12.73;3.03;;;;;;;;;;5076548;28;20168;-57
2023/12/26 07:52:47;;;;;;;16.23;2.80;;;;;;;;;;5076612;28;20176;-57
2023/12/26 07:55:13;;;;;;;15.73;2.77;;;;;;;;;;5076753;28;20540;-58
2023/12/26 07:57:39;;;;;;;14.27;3.17;;;;;;;;;;5077163;28;20605;-57
2023/12/26 08:00:05;;;;;;;19.10;2.63;;;;;;;;;;5077455;28;20222;-57
2023/12/26 08:02:31;;;;;;;12.00;2.67;;;;;;;;;;5077670;28;20165;-57
2023/12/26 08:04:57;;;;;;;12.97;3.07;;;;;;;;;;5077162;28;20273;-57
2023/12/26 08:07:23;;;;;;;10.80;2.67;;;;;;;;;;5076850;28;20172;-55
2023/12/26 08:09:49;;;;;;;12.20;3.13;;;;;;;;;;5077215;28;20165;-57
2023/12/26 08:12:15;;;;;;;13.57;3.00;;;;;;;;;;5076319;28;20169;-55
2023/12/26 08:14:41;;;;;;;8.67;2.80;;;;;;;;;;5075672;28;20179;-56
2023/12/26 08:17:07;;;;;;;13.00;2.70;;;;;;;;;;5076518;28;20171;-56
2023/12/26 08:19:33;;;;;;;15.97;2.90;;;;;;;;;;5074564;28;20168;-57
2023/12/26 08:21:59;;;;;;;13.33;2.47;;;;;;;;;;5075207;28;20196;-56
2023/12/26 08:24:25;;;;;;;15.33;2.70;;;;;;;;;;5074394;28;20200;-56
2023/12/26 08:26:54;;;;;;;14.43;3.10;;;;;;;;;;5074706;28;20244;-58
2023/12/26 08:29:21;;;;;;;21.23;3.90;;;;;;;;;;5075456;28;20564;-57
2023/12/26 08:31:47;;;;;;;14.67;3.67;;;;;;;;;;5074826;28;20469;-57
2023/12/26 08:34:13;;;;;;;9.37;1.73;;;;;;;;;;5075164;28;20176;-57
2023/12/26 08:36:39;;;;;;;13.87;2.83;;;;;;;;;;5075555;28;20172;-58
2023/12/26 08:39:05;;;;;;;12.57;2.93;;;;;;;;;;5075382;28;20173;-58
2023/12/26 08:41:31;;;;;;;15.87;3.30;;;;;;;;;;5075327;28;20186;-57
2023/12/26 08:43:57;;;;;;;15.37;2.60;;;;;;;;;;5075449;28;20299;-57
2023/12/26 08:46:23;;;;;;;16.37;2.90;;;;;;;;;;5073893;28;20247;-57
2023/12/26 08:48:49;;;;;;;23.27;4.60;;;;;;;;;;5074757;28;20169;-55
2023/12/26 08:51:15;;;;;;;12.77;3.03;;;;;;;;;;5074018;28;20172;-58
2023/12/26 08:53:41;;;;;;;12.07;2.83;;;;;;;;;;5072908;28;20169;-56
2023/12/26 08:56:08;;;;;;;11.90;2.80;;;;;;;;;;5073907;28;20203;-55
2023/12/26 08:58:35;;;;;;;12.53;3.00;;;;;;;;;;5072822;28;20184;-55
2023/12/26 09:01:01;;;;;;;12.10;2.83;;;;;;;;;;5071840;28;20176;-55
2023/12/26 09:03:27;;;;;;;14.27;3.00;;;;;;;;;;5071154;28;20208;-55
2023/12/26 09:05:54;;;;;;;14.60;3.07;;;;;;;;;;5069585;28;20323;-56
2023/12/26 09:08:20;;;;;;;15.57;2.67;;;;;;;;;;5070644;28;20169;-56
2023/12/26 09:10:46;;;;;;;11.30;3.10;;;;;;;;;;5071079;28;20168;-57
2023/12/26 09:13:16;;;;;;;14.30;2.73;;;;;;;;;;5071346;28;20582;-54
2023/12/26 09:15:43;;;;;;;14.33;3.00;;;;;;;;;;5072397;28;20204;-58
2023/12/26 09:18:09;;;;;;;11.00;2.60;;;;;;;;;;5076445;28;20207;-58
2023/12/26 09:20:36;;;;;;;11.53;2.97;;;;;;;;;;5078081;28;20722;-57
2023/12/26 09:23:02;;;;;;;9.80;2.50;;;;;;;;;;5078840;28;20204;-56
2023/12/26 09:25:28;;;;;;;13.20;3.40;;;;;;;;;;5078608;28;20195;-54
2023/12/26 09:27:55;;;;;;;13.03;3.10;;;;;;;;;;5078590;28;20168;-56
2023/12/26 09:30:21;;;;;;;12.40;3.63;;;;;;;;;;5078354;28;20183;-54
2023/12/26 09:32:48;;;;;;;12.90;2.23;;;;;;;;;;5079015;28;20172;-53
2023/12/26 09:35:15;;;;;;;10.70;2.93;;;;;;;;;;5078025;28;20184;-56
2023/12/26 09:37:41;;;;;;;15.50;2.90;;;;;;;;;;5078133;28;20563;-57
2023/12/26 09:40:14;;;;;;;12.57;3.10;;;;;;;;;;5076452;28;20248;-55
2023/12/26 09:42:41;;;;;;;10.97;2.87;;;;;;;;;;5076964;28;20224;-54
2023/12/26 09:45:13;;;;;;;13.53;2.73;;;;;;;;;;5076726;28;20177;-58
2023/12/26 09:47:41;;;;;;;14.57;2.90;;;;;;;;;;5076778;28;20241;-54
2023/12/26 09:50:09;;;;;;;10.80;2.57;;;;;;;;;;5075915;28;20176;-58
2023/12/26 09:52:40;;;;;;;11.57;2.90;;;;;;;;;;5074636;28;20168;-57
2023/12/26 09:55:06;;;;;;;20.20;3.97;;;;;;;;;;5075610;28;20173;-57
2023/12/26 09:57:32;;;;;;;14.90;3.47;;;;;;;;;;5076523;28;20326;-56
2023/12/26 09:59:58;;;;;;;9.97;2.30;;;;;;;;;;5077551;28;20287;-55
2023/12/26 10:02:24;;;;;;;11.07;3.50;;;;;;;;;;5078106;28;20172;-57
2023/12/26 10:04:50;;;;;;;13.77;2.53;;;;;;;;;;5077444;28;20235;-57
2023/12/26 10:07:19;;;;;;;14.83;2.90;;;;;;;;;;5077208;28;20177;-57
2023/12/26 10:09:45;;;;;;;11.47;2.70;;;;;;;;;;5077199;28;20175;-55
2023/12/26 10:12:13;;;;;;;9.97;2.50;;;;;;;;;;5077846;28;20195;-58
2023/12/26 10:14:40;;;;;;;8.13;3.03;;;;;;;;;;5077387;28;20172;-56
2023/12/26 10:17:07;;;;;;;4.67;2.03;;;;;;;;;;5076708;28;20652;-55
2023/12/26 10:19:34;;;;;;;8.43;2.10;;;;;;;;;;5077365;28;20245;-57
2023/12/26 10:22:02;;;;;;;14.40;2.30;;;;;;;;;;5077773;28;20184;-56
2023/12/26 10:24:29;;;;;;;12.73;2.20;;;;;;;;;;5076686;28;20204;-57
2023/12/26 10:26:56;;;;;;;13.27;2.60;;;;;;;;;;5077628;28;20199;-57
2023/12/26 10:29:22;;;;;;;11.63;2.20;;;;;;;;;;5075315;28;20176;-52
2023/12/26 10:31:48;;;;;;;9.87;2.23;;;;;;;;;;5076204;28;20177;-55
2023/12/26 10:34:19;;;;;;;8.60;2.27;;;;;;;;;;5076252;28;20230;-57
2023/12/26 10:36:45;;;;;;;10.07;2.17;;;;;;;;;;5073357;28;20750;-56
2023/12/26 10:39:12;;;;;;;12.87;2.13;;;;;;;;;;5073937;28;20176;-54
2023/12/26 10:41:39;;;;;;;10.37;2.10;;;;;;;;;;5073126;28;20663;-58
2023/12/26 10:44:06;;;;;;;6.47;1.87;;;;;;;;;;5073612;28;20501;-55
2023/12/26 10:46:32;;;;;;;9.47;1.90;;;;;;;;;;5074861;28;20180;-54
2023/12/26 10:49:04;;;;;;;5.80;1.53;;;;;;;;;;5075865;28;20260;-57
2023/12/26 10:51:31;;;;;;;13.77;2.23;;;;;;;;;;5074866;28;20549;-53
2023/12/26 10:54:01;;;;;;;12.53;2.00;;;;;;;;;;5074404;28;20172;-57
2023/12/26 10:56:27;;;;;;;11.43;2.40;;;;;;;;;;5074407;28;20376;-57
2023/12/26 10:58:54;;;;;;;8.57;2.23;;;;;;;;;;5073482;28;20180;-56
2023/12/26 13:53:09;;;;;;;7.70;1.17;;;;;;;;;;5032902;28;20459;-57
2023/12/26 13:55:34;;;;;;;4.50;1.07;;;;;;;;;;5031780;28;20173;-53
2023/12/26 13:58:00;;;;;;;2.00;0.70;;;;;;;;;;5031370;28;20166;-51
2023/12/26 14:00:26;;;;;;;3.87;1.17;;;;;;;;;;5030351;28;20167;-52
2023/12/26 14:02:52;;;;;;;3.03;0.70;;;;;;;;;;5031429;28;20542;-56
2023/12/26 14:05:18;;;;;;;4.37;0.67;;;;;;;;;;5051279;28;20294;-56
2023/12/26 14:07:44;;;;;;;2.80;0.90;;;;;;;;;;5074853;28;20184;-56
2023/12/26 14:10:10;;;;;;;2.90;0.87;;;;;;;;;;5073885;28;20615;-55
2023/12/26 14:12:36;;;;;;;1.80;0.80;;;;;;;;;;5076257;28;20168;-57
2023/12/26 14:15:02;;;;;;;2.60;0.77;;;;;;;;;;5075828;28;20173;-52
2023/12/26 14:17:28;;;;;;;1.70;0.50;;;;;;;;;;5075878;28;20169;-57
2023/12/26 14:19:54;;;;;;;2.03;0.80;;;;;;;;;;5075114;28;20182;-57
2023/12/26 14:22:23;;;;;;;4.20;1.27;;;;;;;;;;5075245;28;20172;-54
2023/12/26 14:24:49;;;;;;;3.80;1.20;;;;;;;;;;5075163;28;20306;-55
2023/12/26 14:27:15;;;;;;;4.23;1.37;;;;;;;;;;5074914;28;20179;-56
2023/12/26 14:29:41;;;;;;;5.97;1.17;;;;;;;;;;5075050;28;20251;-56
2023/12/26 14:32:07;;;;;;;6.80;1.30;;;;;;;;;;5075239;28;20176;-55
2023/12/26 14:34:33;;;;;;;4.07;1.63;;;;;;;;;;5075607;28;20716;-53
2023/12/26 14:36:59;;;;;;;5.07;1.57;;;;;;;;;;5074460;28;20185;-56
2023/12/26 14:39:25;;;;;;;4.40;1.00;;;;;;;;;;5073526;28;20173;-55
2023/12/26 14:41:51;;;;;;;2.30;0.80;;;;;;;;;;5072137;28;20173;-56
2023/12/26 14:44:18;;;;;;;5.43;1.00;;;;;;;;;;5072098;28;20287;-57
2023/12/26 14:46:44;;;;;;;2.03;0.50;;;;;;;;;;5070836;28;20238;-56
2023/12/26 14:49:10;;;;;;;1.57;0.70;;;;;;;;;;5069343;28;20172;-56
2023/12/26 14:51:36;;;;;;;2.13;0.80;;;;;;;;;;5070545;28;20175;-56
2023/12/26 14:54:02;;;;;;;4.90;1.40;;;;;;;;;;5072080;28;20275;-53
2023/12/26 14:56:28;;;;;;;8.80;1.77;;;;;;;;;;5069747;28;20188;-57
2023/12/26 14:58:54;;;;;;;4.33;1.10;;;;;;;;;;5070248;28;20181;-54
2023/12/26 15:01:20;;;;;;;3.53;1.37;;;;;;;;;;5071910;28;20180;-56
2023/12/26 15:03:48;;;;;;;4.23;1.30;;;;;;;;;;5072225;28;20200;-56
2023/12/26 15:06:17;;;;;;;4.80;1.10;;;;;;;;;;5073025;28;20285;-55
2023/12/26 15:08:44;;;;;;;2.50;1.20;;;;;;;;;;5073064;28;20181;-54
2023/12/26 15:11:14;;;;;;;4.87;1.37;;;;;;;;;;5072954;28;20175;-57
2023/12/26 15:13:40;;;;;;;3.63;1.27;;;;;;;;;;5072574;28;20202;-57
2023/12/26 15:16:13;;;;;;;6.43;0.87;;;;;;;;;;5071473;28;20177;-57
2023/12/26 15:18:39;;;;;;;7.40;1.23;;;;;;;;;;5071288;28;20183;-54
2023/12/26 15:21:05;;;;;;;5.30;1.43;;;;;;;;;;5072686;28;20180;-56
2023/12/26 15:23:31;;;;;;;6.63;1.80;;;;;;;;;;5072095;28;20212;-56
2023/12/26 15:25:57;;;;;;;9.13;1.57;;;;;;;;;;5073932;28;20622;-58
2023/12/26 15:28:23;;;;;;;7.17;1.40;;;;;;;;;;5073679;28;20577;-57
2023/12/26 15:30:49;;;;;;;5.63;2.17;;;;;;;;;;5074368;28;20176;-54
2023/12/26 15:33:16;;;;;;;9.77;1.87;;;;;;;;;;5072553;28;20176;-55
2023/12/26 15:35:47;;;;;;;10.73;2.17;;;;;;;;;;5071692;28;20177;-55
2023/12/26 15:38:13;;;;;;;7.00;1.10;;;;;;;;;;5072711;28;20191;-58
2023/12/26 15:40:39;;;;;;;2.77;1.20;;;;;;;;;;5073012;28;20168;-52
2023/12/26 15:43:05;;;;;;;6.23;1.83;;;;;;;;;;5072758;28;20204;-55
2023/12/26 15:45:31;;;;;;;6.07;1.30;;;;;;;;;;5072222;28;20173;-51
2023/12/26 15:47:57;;;;;;;8.00;1.67;;;;;;;;;;5072295;28;20184;-55
2023/12/26 15:50:23;;;;;;;7.03;1.43;;;;;;;;;;5072049;28;20169;-56
2023/12/26 15:52:50;;;;;;;6.13;1.40;;;;;;;;;;5072299;28;20181;-57
2023/12/26 15:55:16;;;;;;;10.70;3.03;;;;;;;;;;5072250;28;20238;-56
2023/12/26 15:57:42;;;;;;;4.87;1.57;;;;;;;;;;5072190;28;20560;-55
2023/12/26 16:00:08;;;;;;;2.30;1.10;;;;;;;;;;5069615;28;20172;-57
2023/12/26 16:02:34;;;;;;;11.10;1.43;;;;;;;;;;5070313;28;20169;-56
2023/12/26 16:05:00;;;;;;;5.33;1.33;;;;;;;;;;5069321;28;20712;-57
2023/12/26 16:07:26;;;;;;;4.37;1.00;;;;;;;;;;5068882;28;20181;-57
2023/12/26 16:09:52;;;;;;;4.97;1.10;;;;;;;;;;5069385;28;20187;-57
2023/12/26 16:12:18;;;;;;;5.10;1.53;;;;;;;;;;5069260;28;20217;-56
2023/12/26 16:14:44;;;;;;;5.13;1.33;;;;;;;;;;5070039;28;20462;-55
2023/12/26 16:17:10;;;;;;;3.77;1.37;;;;;;;;;;5070066;28;20521;-56
2023/12/26 16:19:40;;;;;;;7.13;1.40;;;;;;;;;;5071943;28;20169;-56
2023/12/26 16:22:06;;;;;;;10.90;1.70;;;;;;;;;;5070266;28;20177;-55
2023/12/26 16:24:32;;;;;;;6.70;1.23;;;;;;;;;;5070159;28;20231;-55
2023/12/26 16:26:58;;;;;;;5.47;1.00;;;;;;;;;;5070065;28;20204;-57
2023/12/26 16:29:24;;;;;;;6.23;1.50;;;;;;;;;;5071458;28;20200;-55
2023/12/26 16:31:50;;;;;;;8.37;1.40;;;;;;;;;;5070814;28;20194;-54
2023/12/26 16:34:16;;;;;;;4.07;1.20;;;;;;;;;;5069535;28;20263;-56
2023/12/26 16:36:45;;;;;;;7.83;1.10;;;;;;;;;;5069677;28;20631;-58
2023/12/26 16:39:11;;;;;;;6.63;1.70;;;;;;;;;;5070892;28;20169;-55
2023/12/26 16:41:37;;;;;;;5.10;1.70;;;;;;;;;;5071154;28;20180;-54
2023/12/26 16:44:09;;;;;;;3.23;1.17;;;;;;;;;;5071049;28;20295;-58
2023/12/26 16:46:35;;;;;;;2.80;0.87;;;;;;;;;;5071883;28;20169;-56
2023/12/26 16:49:02;;;;;;;5.93;0.93;;;;;;;;;;5071791;28;20235;-56
2023/12/26 16:51:28;;;;;;;6.43;1.13;;;;;;;;;;5072128;28;20164;-55
2023/12/26 16:53:54;;;;;;;4.97;1.00;;;;;;;;;;5072502;28;20212;-57
2023/12/26 16:56:20;;;;;;;2.53;0.80;;;;;;;;;;5071483;28;20218;-57
2023/12/26 16:58:46;;;;;;;3.27;0.90;;;;;;;;;;5072116;28;20196;-56
2023/12/26 17:01:14;;;;;;;2.53;0.80;;;;;;;;;;5070822;28;20676;-51
2023/12/26 17:03:40;;;;;;;3.07;1.37;;;;;;;;;;5070114;28;20616;-54
2023/12/26 17:06:07;;;;;;;3.23;0.93;;;;;;;;;;5070746;28;20280;-55
2023/12/26 17:08:33;;;;;;;4.50;1.33;;;;;;;;;;5070219;28;20630;-55
2023/12/26 17:10:59;;;;;;;7.53;2.67;;;;;;;;;;5070887;28;20211;-55
2023/12/26 17:13:25;;;;;;;4.63;1.30;;;;;;;;;;5069693;28;20215;-54
2023/12/26 17:15:52;;;;;;;6.93;1.00;;;;;;;;;;5069811;28;20303;-55
2023/12/26 17:18:18;;;;;;;3.20;1.10;;;;;;;;;;5070050;28;20183;-56
2023/12/26 17:20:45;;;;;;;2.03;0.70;;;;;;;;;;5070529;28;20263;-58
2023/12/26 17:23:12;;;;;;;4.43;1.20;;;;;;;;;;5070608;28;20294;-57
2023/12/26 17:25:38;;;;;;;5.13;1.00;;;;;;;;;;5072433;28;20176;-54